sensor_id;sensor_type;location;lat;lon;timestamp;P1;durP1;ratioP1;P2;durP2;ratioP2
63394;SDS011;49531;-34.520;150.798;2023-12-07T00:00:33;9.38;;;2.75;;
63394;SDS011;49531;-34.520;150.798;2023-12-07T00:03:01;8.00;;;2.90;;
63394;SDS011;49531;-34.520;150.798;2023-12-07T00:05:28;7.75;;;2.78;;
63394;SDS011;49531;-34.520;150.798;2023-12-07T00:07:55;6.05;;;2.55;;
63394;SDS011;49531;-34.520;150.798;2023-12-07T00:10:22;8.50;;;2.90;;
63394;SDS011;49531;-34.520;150.798;2023-12-07T00:12:49;7.97;;;2.80;;
63394;SDS011;49531;-34.520;150.798;2023-12-07T00:15:16;7.93;;;2.90;;
63394;SDS011;49531;-34.520;150.798;2023-12-07T00:17:43;10.77;;;2.78;;
63394;SDS011;49531;-34.520;150.798;2023-12-07T00:20:30;10.23;;;2.92;;
63394;SDS011;49531;-34.520;150.798;2023-12-07T00:22:57;10.27;;;3.20;;
63394;SDS011;49531;-34.520;150.798;2023-12-07T00:25:24;9.35;;;3.00;;
63394;SDS011;49531;-34.520;150.798;2023-12-07T00:27:51;7.15;;;3.00;;
63394;SDS011;49531;-34.520;150.798;2023-12-07T00:30:18;10.95;;;3.13;;
63394;SDS011;49531;-34.520;150.798;2023-12-07T00:32:46;8.57;;;2.95;;
63394;SDS011;49531;-34.520;150.798;2023-12-07T00:35:13;8.63;;;3.10;;
63394;SDS011;49531;-34.520;150.798;2023-12-07T00:37:42;8.20;;;3.08;;
63394;SDS011;49531;-34.520;150.798;2023-12-07T00:40:09;7.55;;;3.00;;
63394;SDS011;49531;-34.520;150.798;2023-12-07T00:42:38;9.73;;;3.15;;
63394;SDS011;49531;-34.520;150.798;2023-12-07T00:45:05;10.40;;;3.20;;
63394;SDS011;49531;-34.520;150.798;2023-12-07T00:47:33;8.85;;;2.88;;
63394;SDS011;49531;-34.520;150.798;2023-12-07T00:50:00;9.05;;;3.22;;
63394;SDS011;49531;-34.520;150.798;2023-12-07T00:52:27;6.32;;;2.90;;
63394;SDS011;49531;-34.520;150.798;2023-12-07T00:54:55;10.60;;;3.53;;
63394;SDS011;49531;-34.520;150.798;2023-12-07T00:57:23;11.52;;;3.33;;
63394;SDS011;49531;-34.520;150.798;2023-12-07T00:59:50;15.10;;;3.30;;
63394;SDS011;49531;-34.520;150.798;2023-12-07T01:02:18;8.82;;;2.90;;
63394;SDS011;49531;-34.520;150.798;2023-12-07T01:04:45;7.50;;;3.00;;
63394;SDS011;49531;-34.520;150.798;2023-12-07T01:07:12;8.20;;;3.03;;
63394;SDS011;49531;-34.520;150.798;2023-12-07T01:09:40;7.20;;;3.00;;
63394;SDS011;49531;-34.520;150.798;2023-12-07T01:12:07;10.93;;;3.20;;
63394;SDS011;49531;-34.520;150.798;2023-12-07T01:14:35;9.98;;;3.28;;
63394;SDS011;49531;-34.520;150.798;2023-12-07T01:17:02;9.10;;;3.22;;
63394;SDS011;49531;-34.520;150.798;2023-12-07T01:19:30;13.27;;;3.35;;
63394;SDS011;49531;-34.520;150.798;2023-12-07T01:21:57;6.85;;;3.10;;
63394;SDS011;49531;-34.520;150.798;2023-12-07T01:24:25;11.35;;;3.28;;
63394;SDS011;49531;-34.520;150.798;2023-12-07T01:26:52;9.02;;;3.25;;
63394;SDS011;49531;-34.520;150.798;2023-12-07T01:29:20;9.32;;;3.20;;
63394;SDS011;49531;-34.520;150.798;2023-12-07T01:31:48;10.95;;;3.85;;
63394;SDS011;49531;-34.520;150.798;2023-12-07T01:34:17;11.65;;;3.65;;
63394;SDS011;49531;-34.520;150.798;2023-12-07T01:36:44;9.98;;;3.33;;
63394;SDS011;49531;-34.520;150.798;2023-12-07T01:39:12;9.43;;;3.40;;
63394;SDS011;49531;-34.520;150.798;2023-12-07T01:41:39;10.15;;;3.55;;
63394;SDS011;49531;-34.520;150.798;2023-12-07T01:44:07;9.23;;;3.17;;
63394;SDS011;49531;-34.520;150.798;2023-12-07T01:46:34;7.47;;;3.15;;
63394;SDS011;49531;-34.520;150.798;2023-12-07T01:49:02;11.43;;;3.28;;
63394;SDS011;49531;-34.520;150.798;2023-12-07T01:51:30;10.68;;;3.35;;
63394;SDS011;49531;-34.520;150.798;2023-12-07T01:53:59;9.15;;;3.17;;
63394;SDS011;49531;-34.520;150.798;2023-12-07T01:56:27;11.02;;;3.50;;
63394;SDS011;49531;-34.520;150.798;2023-12-07T01:58:56;12.10;;;3.38;;
63394;SDS011;49531;-34.520;150.798;2023-12-07T02:01:25;11.05;;;3.55;;
63394;SDS011;49531;-34.520;150.798;2023-12-07T02:03:52;11.75;;;3.67;;
63394;SDS011;49531;-34.520;150.798;2023-12-07T02:06:20;12.07;;;3.88;;
63394;SDS011;49531;-34.520;150.798;2023-12-07T02:08:48;9.93;;;3.53;;
63394;SDS011;49531;-34.520;150.798;2023-12-07T02:11:17;11.70;;;3.80;;
63394;SDS011;49531;-34.520;150.798;2023-12-07T02:13:45;12.98;;;3.80;;
63394;SDS011;49531;-34.520;150.798;2023-12-07T02:16:23;14.80;;;3.85;;
63394;SDS011;49531;-34.520;150.798;2023-12-07T02:22:10;9.25;;;3.45;;
63394;SDS011;49531;-34.520;150.798;2023-12-07T02:24:47;11.48;;;3.60;;
63394;SDS011;49531;-34.520;150.798;2023-12-07T02:27:37;10.25;;;3.60;;
63394;SDS011;49531;-34.520;150.798;2023-12-07T02:30:06;10.73;;;3.55;;
63394;SDS011;49531;-34.520;150.798;2023-12-07T02:32:36;8.90;;;3.40;;
63394;SDS011;49531;-34.520;150.798;2023-12-07T02:37:52;9.45;;;3.70;;
63394;SDS011;49531;-34.520;150.798;2023-12-07T02:40:24;10.00;;;3.60;;
63394;SDS011;49531;-34.520;150.798;2023-12-07T02:42:53;11.23;;;3.87;;
63394;SDS011;49531;-34.520;150.798;2023-12-07T02:45:21;9.48;;;3.53;;
63394;SDS011;49531;-34.520;150.798;2023-12-07T02:47:49;9.30;;;3.70;;
63394;SDS011;49531;-34.520;150.798;2023-12-07T02:50:16;9.65;;;3.60;;
63394;SDS011;49531;-34.520;150.798;2023-12-07T02:52:44;9.80;;;3.33;;
63394;SDS011;49531;-34.520;150.798;2023-12-07T02:55:12;9.38;;;3.75;;
63394;SDS011;49531;-34.520;150.798;2023-12-07T02:57:45;9.45;;;3.53;;
63394;SDS011;49531;-34.520;150.798;2023-12-07T03:00:12;11.07;;;3.78;;
63394;SDS011;49531;-34.520;150.798;2023-12-07T03:02:40;10.60;;;3.67;;
63394;SDS011;49531;-34.520;150.798;2023-12-07T03:05:08;10.55;;;3.70;;
63394;SDS011;49531;-34.520;150.798;2023-12-07T03:07:36;8.75;;;3.60;;
63394;SDS011;49531;-34.520;150.798;2023-12-07T03:10:03;10.30;;;3.88;;
63394;SDS011;49531;-34.520;150.798;2023-12-07T03:12:31;7.43;;;3.38;;
63394;SDS011;49531;-34.520;150.798;2023-12-07T03:14:59;8.05;;;3.83;;
63394;SDS011;49531;-34.520;150.798;2023-12-07T03:17:26;10.40;;;3.95;;
63394;SDS011;49531;-34.520;150.798;2023-12-07T03:19:54;9.23;;;3.72;;
63394;SDS011;49531;-34.520;150.798;2023-12-07T03:22:21;9.88;;;3.85;;
63394;SDS011;49531;-34.520;150.798;2023-12-07T03:24:50;10.35;;;3.95;;
63394;SDS011;49531;-34.520;150.798;2023-12-07T03:27:18;8.43;;;3.67;;
63394;SDS011;49531;-34.520;150.798;2023-12-07T03:29:47;8.70;;;3.70;;
63394;SDS011;49531;-34.520;150.798;2023-12-07T03:32:17;8.80;;;3.75;;
63394;SDS011;49531;-34.520;150.798;2023-12-07T03:34:44;11.20;;;4.00;;
63394;SDS011;49531;-34.520;150.798;2023-12-07T03:37:11;10.95;;;3.88;;
63394;SDS011;49531;-34.520;150.798;2023-12-07T03:39:39;11.93;;;3.85;;
63394;SDS011;49531;-34.520;150.798;2023-12-07T03:42:06;9.30;;;3.72;;
63394;SDS011;49531;-34.520;150.798;2023-12-07T03:44:34;8.68;;;3.90;;
63394;SDS011;49531;-34.520;150.798;2023-12-07T03:47:01;8.75;;;3.70;;
63394;SDS011;49531;-34.520;150.798;2023-12-07T03:49:31;7.80;;;3.88;;
63394;SDS011;49531;-34.520;150.798;2023-12-07T03:51:58;10.35;;;4.18;;
63394;SDS011;49531;-34.520;150.798;2023-12-07T03:54:26;10.80;;;4.03;;
63394;SDS011;49531;-34.520;150.798;2023-12-07T03:56:53;9.48;;;4.28;;
63394;SDS011;49531;-34.520;150.798;2023-12-07T03:59:21;9.52;;;4.22;;
63394;SDS011;49531;-34.520;150.798;2023-12-07T04:01:48;15.15;;;4.82;;
63394;SDS011;49531;-34.520;150.798;2023-12-07T04:04:16;13.82;;;5.05;;
63394;SDS011;49531;-34.520;150.798;2023-12-07T04:06:43;13.32;;;5.05;;
63394;SDS011;49531;-34.520;150.798;2023-12-07T04:09:10;15.32;;;5.18;;
63394;SDS011;49531;-34.520;150.798;2023-12-07T04:11:38;18.42;;;5.35;;
63394;SDS011;49531;-34.520;150.798;2023-12-07T04:14:05;14.75;;;5.70;;
63394;SDS011;49531;-34.520;150.798;2023-12-07T04:16:32;14.90;;;5.30;;
63394;SDS011;49531;-34.520;150.798;2023-12-07T04:19:00;17.80;;;5.40;;
63394;SDS011;49531;-34.520;150.798;2023-12-07T04:21:28;13.20;;;5.47;;
63394;SDS011;49531;-34.520;150.798;2023-12-07T04:23:55;12.18;;;5.43;;
63394;SDS011;49531;-34.520;150.798;2023-12-07T04:26:23;13.32;;;5.40;;
63394;SDS011;49531;-34.520;150.798;2023-12-07T04:28:51;16.92;;;5.72;;
63394;SDS011;49531;-34.520;150.798;2023-12-07T04:31:19;15.70;;;5.30;;
63394;SDS011;49531;-34.520;150.798;2023-12-07T04:33:47;12.55;;;5.35;;
63394;SDS011;49531;-34.520;150.798;2023-12-07T04:36:14;11.55;;;5.53;;
63394;SDS011;49531;-34.520;150.798;2023-12-07T04:38:41;13.77;;;5.80;;
63394;SDS011;49531;-34.520;150.798;2023-12-07T04:41:09;15.75;;;5.65;;
63394;SDS011;49531;-34.520;150.798;2023-12-07T04:43:36;12.73;;;5.20;;
63394;SDS011;49531;-34.520;150.798;2023-12-07T04:46:03;16.45;;;5.25;;
63394;SDS011;49531;-34.520;150.798;2023-12-07T04:48:32;17.38;;;5.60;;
63394;SDS011;49531;-34.520;150.798;2023-12-07T04:50:59;11.88;;;5.50;;
63394;SDS011;49531;-34.520;150.798;2023-12-07T04:53:26;11.35;;;4.80;;
63394;SDS011;49531;-34.520;150.798;2023-12-07T04:55:53;12.07;;;5.28;;
63394;SDS011;49531;-34.520;150.798;2023-12-07T04:58:20;12.77;;;5.05;;
63394;SDS011;49531;-34.520;150.798;2023-12-07T05:00:47;12.20;;;5.03;;
63394;SDS011;49531;-34.520;150.798;2023-12-07T05:03:14;14.82;;;5.38;;
63394;SDS011;49531;-34.520;150.798;2023-12-07T05:05:42;13.98;;;5.75;;
63394;SDS011;49531;-34.520;150.798;2023-12-07T05:08:09;14.40;;;5.50;;
63394;SDS011;49531;-34.520;150.798;2023-12-07T05:10:36;18.67;;;5.38;;
63394;SDS011;49531;-34.520;150.798;2023-12-07T05:13:07;16.17;;;5.30;;
63394;SDS011;49531;-34.520;150.798;2023-12-07T05:15:35;13.57;;;5.43;;
63394;SDS011;49531;-34.520;150.798;2023-12-07T05:18:03;17.73;;;5.35;;
63394;SDS011;49531;-34.520;150.798;2023-12-07T05:20:30;13.35;;;5.32;;
63394;SDS011;49531;-34.520;150.798;2023-12-07T05:22:57;20.02;;;5.22;;
63394;SDS011;49531;-34.520;150.798;2023-12-07T05:25:24;15.52;;;5.35;;
63394;SDS011;49531;-34.520;150.798;2023-12-07T05:27:51;15.45;;;4.97;;
63394;SDS011;49531;-34.520;150.798;2023-12-07T05:30:18;16.08;;;4.80;;
63394;SDS011;49531;-34.520;150.798;2023-12-07T05:32:46;13.57;;;5.00;;
63394;SDS011;49531;-34.520;150.798;2023-12-07T05:35:13;12.77;;;4.65;;
63394;SDS011;49531;-34.520;150.798;2023-12-07T05:37:40;17.50;;;4.93;;
63394;SDS011;49531;-34.520;150.798;2023-12-07T05:40:08;13.38;;;4.75;;
63394;SDS011;49531;-34.520;150.798;2023-12-07T05:42:37;13.93;;;4.93;;
63394;SDS011;49531;-34.520;150.798;2023-12-07T05:45:05;12.02;;;4.57;;
63394;SDS011;49531;-34.520;150.798;2023-12-07T05:47:32;11.85;;;4.95;;
63394;SDS011;49531;-34.520;150.798;2023-12-07T05:49:59;14.68;;;4.95;;
63394;SDS011;49531;-34.520;150.798;2023-12-07T05:52:28;16.08;;;4.68;;
63394;SDS011;49531;-34.520;150.798;2023-12-07T05:54:56;15.35;;;4.78;;
63394;SDS011;49531;-34.520;150.798;2023-12-07T05:57:23;17.02;;;5.03;;
63394;SDS011;49531;-34.520;150.798;2023-12-07T05:59:50;16.77;;;4.88;;
63394;SDS011;49531;-34.520;150.798;2023-12-07T06:02:17;14.15;;;4.70;;
63394;SDS011;49531;-34.520;150.798;2023-12-07T06:04:44;15.77;;;5.03;;
63394;SDS011;49531;-34.520;150.798;2023-12-07T06:07:15;13.65;;;4.88;;
63394;SDS011;49531;-34.520;150.798;2023-12-07T06:09:42;13.32;;;4.90;;
63394;SDS011;49531;-34.520;150.798;2023-12-07T06:12:09;14.10;;;4.60;;
63394;SDS011;49531;-34.520;150.798;2023-12-07T06:14:37;13.02;;;5.10;;
63394;SDS011;49531;-34.520;150.798;2023-12-07T06:17:04;13.15;;;5.05;;
63394;SDS011;49531;-34.520;150.798;2023-12-07T06:19:33;11.18;;;4.40;;
63394;SDS011;49531;-34.520;150.798;2023-12-07T06:22:00;12.63;;;4.70;;
63394;SDS011;49531;-34.520;150.798;2023-12-07T06:24:27;11.60;;;4.68;;
63394;SDS011;49531;-34.520;150.798;2023-12-07T06:26:55;10.85;;;4.20;;
63394;SDS011;49531;-34.520;150.798;2023-12-07T06:29:23;12.77;;;4.38;;
63394;SDS011;49531;-34.520;150.798;2023-12-07T06:31:50;11.98;;;4.15;;
63394;SDS011;49531;-34.520;150.798;2023-12-07T06:34:17;10.25;;;4.32;;
63394;SDS011;49531;-34.520;150.798;2023-12-07T06:36:45;11.23;;;4.32;;
63394;SDS011;49531;-34.520;150.798;2023-12-07T06:39:13;11.50;;;4.35;;
63394;SDS011;49531;-34.520;150.798;2023-12-07T06:41:40;10.73;;;4.20;;
63394;SDS011;49531;-34.520;150.798;2023-12-07T06:44:07;12.10;;;4.45;;
63394;SDS011;49531;-34.520;150.798;2023-12-07T06:46:34;12.20;;;4.15;;
63394;SDS011;49531;-34.520;150.798;2023-12-07T06:49:01;12.25;;;4.50;;
63394;SDS011;49531;-34.520;150.798;2023-12-07T06:51:29;10.20;;;4.10;;
63394;SDS011;49531;-34.520;150.798;2023-12-07T06:53:56;10.23;;;4.13;;
63394;SDS011;49531;-34.520;150.798;2023-12-07T06:56:23;12.75;;;4.38;;
63394;SDS011;49531;-34.520;150.798;2023-12-07T06:58:50;11.45;;;4.20;;
63394;SDS011;49531;-34.520;150.798;2023-12-07T07:01:18;9.43;;;4.10;;
63394;SDS011;49531;-34.520;150.798;2023-12-07T07:03:48;8.85;;;4.40;;
63394;SDS011;49531;-34.520;150.798;2023-12-07T07:06:15;11.30;;;4.20;;
63394;SDS011;49531;-34.520;150.798;2023-12-07T07:08:42;11.57;;;4.30;;
63394;SDS011;49531;-34.520;150.798;2023-12-07T07:11:12;11.32;;;4.25;;
63394;SDS011;49531;-34.520;150.798;2023-12-07T07:13:40;10.75;;;4.65;;
63394;SDS011;49531;-34.520;150.798;2023-12-07T07:16:07;14.60;;;4.82;;
63394;SDS011;49531;-34.520;150.798;2023-12-07T07:18:37;11.25;;;4.43;;
63394;SDS011;49531;-34.520;150.798;2023-12-07T07:21:17;12.80;;;4.70;;
63394;SDS011;49531;-34.520;150.798;2023-12-07T07:23:47;11.60;;;4.30;;
63394;SDS011;49531;-34.520;150.798;2023-12-07T07:26:15;13.82;;;4.88;;
63394;SDS011;49531;-34.520;150.798;2023-12-07T07:28:49;10.25;;;4.53;;
63394;SDS011;49531;-34.520;150.798;2023-12-07T07:31:16;11.50;;;4.40;;
63394;SDS011;49531;-34.520;150.798;2023-12-07T07:33:44;11.80;;;4.50;;
63394;SDS011;49531;-34.520;150.798;2023-12-07T07:36:13;9.55;;;4.00;;
63394;SDS011;49531;-34.520;150.798;2023-12-07T07:38:43;9.70;;;4.35;;
63394;SDS011;49531;-34.520;150.798;2023-12-07T07:41:10;10.18;;;3.88;;
63394;SDS011;49531;-34.520;150.798;2023-12-07T07:43:37;14.38;;;4.25;;
63394;SDS011;49531;-34.520;150.798;2023-12-07T07:46:04;10.88;;;4.30;;
63394;SDS011;49531;-34.520;150.798;2023-12-07T07:48:31;12.13;;;4.55;;
63394;SDS011;49531;-34.520;150.798;2023-12-07T07:50:59;8.25;;;3.88;;
63394;SDS011;49531;-34.520;150.798;2023-12-07T07:53:26;10.93;;;4.30;;
63394;SDS011;49531;-34.520;150.798;2023-12-07T07:55:53;11.82;;;4.53;;
63394;SDS011;49531;-34.520;150.798;2023-12-07T07:58:21;11.55;;;4.22;;
63394;SDS011;49531;-34.520;150.798;2023-12-07T08:00:48;10.13;;;3.78;;
63394;SDS011;49531;-34.520;150.798;2023-12-07T08:03:15;10.73;;;4.00;;
63394;SDS011;49531;-34.520;150.798;2023-12-07T08:05:42;11.05;;;3.95;;
63394;SDS011;49531;-34.520;150.798;2023-12-07T08:08:10;9.18;;;4.00;;
63394;SDS011;49531;-34.520;150.798;2023-12-07T08:10:37;8.70;;;3.92;;
63394;SDS011;49531;-34.520;150.798;2023-12-07T08:13:04;10.88;;;4.38;;
63394;SDS011;49531;-34.520;150.798;2023-12-07T08:15:33;8.98;;;4.20;;
63394;SDS011;49531;-34.520;150.798;2023-12-07T08:18:00;9.55;;;4.22;;
63394;SDS011;49531;-34.520;150.798;2023-12-07T08:20:27;12.30;;;4.20;;
63394;SDS011;49531;-34.520;150.798;2023-12-07T08:22:55;11.75;;;4.43;;
63394;SDS011;49531;-34.520;150.798;2023-12-07T08:25:22;10.27;;;4.18;;
63394;SDS011;49531;-34.520;150.798;2023-12-07T08:27:49;13.45;;;4.60;;
63394;SDS011;49531;-34.520;150.798;2023-12-07T08:30:16;12.52;;;4.13;;
63394;SDS011;49531;-34.520;150.798;2023-12-07T08:32:45;8.98;;;4.30;;
63394;SDS011;49531;-34.520;150.798;2023-12-07T08:35:12;10.48;;;4.28;;
63394;SDS011;49531;-34.520;150.798;2023-12-07T08:37:39;17.15;;;4.93;;
63394;SDS011;49531;-34.520;150.798;2023-12-07T08:40:06;14.48;;;4.60;;
63394;SDS011;49531;-34.520;150.798;2023-12-07T08:42:36;16.60;;;4.70;;
63394;SDS011;49531;-34.520;150.798;2023-12-07T08:45:04;13.77;;;4.57;;
63394;SDS011;49531;-34.520;150.798;2023-12-07T08:47:31;18.08;;;4.68;;
63394;SDS011;49531;-34.520;150.798;2023-12-07T08:49:59;14.27;;;4.78;;
63394;SDS011;49531;-34.520;150.798;2023-12-07T08:52:26;15.95;;;4.60;;
63394;SDS011;49531;-34.520;150.798;2023-12-07T08:54:54;13.82;;;4.40;;
63394;SDS011;49531;-34.520;150.798;2023-12-07T08:57:21;13.73;;;4.80;;
63394;SDS011;49531;-34.520;150.798;2023-12-07T08:59:48;14.68;;;4.80;;
63394;SDS011;49531;-34.520;150.798;2023-12-07T09:02:15;14.30;;;4.32;;
63394;SDS011;49531;-34.520;150.798;2023-12-07T09:04:42;12.48;;;4.40;;
63394;SDS011;49531;-34.520;150.798;2023-12-07T09:07:09;16.58;;;4.68;;
63394;SDS011;49531;-34.520;150.798;2023-12-07T09:09:41;15.63;;;4.88;;
63394;SDS011;49531;-34.520;150.798;2023-12-07T09:12:13;15.48;;;4.60;;
63394;SDS011;49531;-34.520;150.798;2023-12-07T09:14:41;17.95;;;4.40;;
63394;SDS011;49531;-34.520;150.798;2023-12-07T09:17:08;17.00;;;4.40;;
63394;SDS011;49531;-34.520;150.798;2023-12-07T09:19:35;30.00;;;5.10;;
63394;SDS011;49531;-34.520;150.798;2023-12-07T09:22:03;22.13;;;4.80;;
63394;SDS011;49531;-34.520;150.798;2023-12-07T09:24:30;17.15;;;3.97;;
63394;SDS011;49531;-34.520;150.798;2023-12-07T09:26:57;14.30;;;3.95;;
63394;SDS011;49531;-34.520;150.798;2023-12-07T09:29:24;14.90;;;4.05;;
63394;SDS011;49531;-34.520;150.798;2023-12-07T09:31:52;13.27;;;4.20;;
63394;SDS011;49531;-34.520;150.798;2023-12-07T09:34:19;13.57;;;3.92;;
63394;SDS011;49531;-34.520;150.798;2023-12-07T09:36:47;12.65;;;3.85;;
63394;SDS011;49531;-34.520;150.798;2023-12-07T09:39:14;12.82;;;3.80;;
63394;SDS011;49531;-34.520;150.798;2023-12-07T09:41:41;10.10;;;3.67;;
63394;SDS011;49531;-34.520;150.798;2023-12-07T09:44:12;12.50;;;3.97;;
63394;SDS011;49531;-34.520;150.798;2023-12-07T09:46:40;10.20;;;3.88;;
63394;SDS011;49531;-34.520;150.798;2023-12-07T09:49:07;9.18;;;3.33;;
63394;SDS011;49531;-34.520;150.798;2023-12-07T09:51:35;9.77;;;3.42;;
63394;SDS011;49531;-34.520;150.798;2023-12-07T09:54:02;9.60;;;3.67;;
63394;SDS011;49531;-34.520;150.798;2023-12-07T09:56:31;10.43;;;3.50;;
63394;SDS011;49531;-34.520;150.798;2023-12-07T09:58:58;8.07;;;3.25;;
63394;SDS011;49531;-34.520;150.798;2023-12-07T10:01:28;8.45;;;3.47;;
63394;SDS011;49531;-34.520;150.798;2023-12-07T10:07:02;9.57;;;3.50;;
63394;SDS011;49531;-34.520;150.798;2023-12-07T10:09:29;9.30;;;3.40;;
63394;SDS011;49531;-34.520;150.798;2023-12-07T10:12:04;12.40;;;3.75;;
63394;SDS011;49531;-34.520;150.798;2023-12-07T10:14:32;7.05;;;3.20;;
63394;SDS011;49531;-34.520;150.798;2023-12-07T10:17:00;7.00;;;3.38;;
63394;SDS011;49531;-34.520;150.798;2023-12-07T10:19:27;9.77;;;3.50;;
63394;SDS011;49531;-34.520;150.798;2023-12-07T10:21:54;7.22;;;3.33;;
63394;SDS011;49531;-34.520;150.798;2023-12-07T10:24:22;8.60;;;3.33;;
63394;SDS011;49531;-34.520;150.798;2023-12-07T10:26:52;7.60;;;3.25;;
63394;SDS011;49531;-34.520;150.798;2023-12-07T10:29:22;9.25;;;3.45;;
63394;SDS011;49531;-34.520;150.798;2023-12-07T10:31:49;7.03;;;3.22;;
63394;SDS011;49531;-34.520;150.798;2023-12-07T10:34:19;7.03;;;3.47;;
63394;SDS011;49531;-34.520;150.798;2023-12-07T10:36:46;7.25;;;3.20;;
63394;SDS011;49531;-34.520;150.798;2023-12-07T10:39:14;9.90;;;3.45;;
63394;SDS011;49531;-34.520;150.798;2023-12-07T10:41:43;5.97;;;2.97;;
63394;SDS011;49531;-34.520;150.798;2023-12-07T10:44:11;10.35;;;3.63;;
63394;SDS011;49531;-34.520;150.798;2023-12-07T10:46:41;8.93;;;3.38;;
63394;SDS011;49531;-34.520;150.798;2023-12-07T10:49:11;8.38;;;3.50;;
63394;SDS011;49531;-34.520;150.798;2023-12-07T10:54:22;8.77;;;3.55;;
63394;SDS011;49531;-34.520;150.798;2023-12-07T10:56:53;8.82;;;3.58;;
63394;SDS011;49531;-34.520;150.798;2023-12-07T10:59:21;9.00;;;3.58;;
63394;SDS011;49531;-34.520;150.798;2023-12-07T11:01:50;6.75;;;3.65;;
63394;SDS011;49531;-34.520;150.798;2023-12-07T11:04:18;6.22;;;3.35;;
63394;SDS011;49531;-34.520;150.798;2023-12-07T11:06:47;7.95;;;3.30;;
63394;SDS011;49531;-34.520;150.798;2023-12-07T11:09:19;8.15;;;3.55;;
63394;SDS011;49531;-34.520;150.798;2023-12-07T11:12:13;8.75;;;3.67;;
63394;SDS011;49531;-34.520;150.798;2023-12-07T11:14:46;9.20;;;3.78;;
63394;SDS011;49531;-34.520;150.798;2023-12-07T11:17:14;9.45;;;4.03;;
63394;SDS011;49531;-34.520;150.798;2023-12-07T11:19:48;10.30;;;4.07;;
63394;SDS011;49531;-34.520;150.798;2023-12-07T11:22:15;10.07;;;3.90;;
63394;SDS011;49531;-34.520;150.798;2023-12-07T11:25:01;8.25;;;3.90;;
63394;SDS011;49531;-34.520;150.798;2023-12-07T11:27:31;10.90;;;4.07;;
63394;SDS011;49531;-34.520;150.798;2023-12-07T11:29:59;7.60;;;3.70;;
63394;SDS011;49531;-34.520;150.798;2023-12-07T11:32:27;8.60;;;3.95;;
63394;SDS011;49531;-34.520;150.798;2023-12-07T11:34:54;8.73;;;3.85;;
63394;SDS011;49531;-34.520;150.798;2023-12-07T11:37:25;6.47;;;3.63;;
63394;SDS011;49531;-34.520;150.798;2023-12-07T11:40:42;8.00;;;3.90;;
63394;SDS011;49531;-34.520;150.798;2023-12-07T11:43:16;8.77;;;4.10;;
63394;SDS011;49531;-34.520;150.798;2023-12-07T11:45:50;9.68;;;4.18;;
63394;SDS011;49531;-34.520;150.798;2023-12-07T11:48:19;7.55;;;3.80;;
63394;SDS011;49531;-34.520;150.798;2023-12-07T11:50:57;7.82;;;3.80;;
63394;SDS011;49531;-34.520;150.798;2023-12-07T11:53:28;9.85;;;3.92;;
63394;SDS011;49531;-34.520;150.798;2023-12-07T11:55:57;10.02;;;4.28;;
63394;SDS011;49531;-34.520;150.798;2023-12-07T11:58:25;7.18;;;4.03;;
63394;SDS011;49531;-34.520;150.798;2023-12-07T12:00:53;9.73;;;4.20;;
63394;SDS011;49531;-34.520;150.798;2023-12-07T12:03:22;16.50;;;5.47;;
63394;SDS011;49531;-34.520;150.798;2023-12-07T12:05:50;13.95;;;4.82;;
63394;SDS011;49531;-34.520;150.798;2023-12-07T12:08:18;12.75;;;4.60;;
63394;SDS011;49531;-34.520;150.798;2023-12-07T12:10:45;12.32;;;4.70;;
63394;SDS011;49531;-34.520;150.798;2023-12-07T12:13:15;11.05;;;4.30;;
63394;SDS011;49531;-34.520;150.798;2023-12-07T12:15:42;9.40;;;4.60;;
63394;SDS011;49531;-34.520;150.798;2023-12-07T12:18:09;12.32;;;4.90;;
63394;SDS011;49531;-34.520;150.798;2023-12-07T12:20:39;9.73;;;4.50;;
63394;SDS011;49531;-34.520;150.798;2023-12-07T12:23:06;10.73;;;4.80;;
63394;SDS011;49531;-34.520;150.798;2023-12-07T12:25:34;8.43;;;4.40;;
63394;SDS011;49531;-34.520;150.798;2023-12-07T12:28:02;10.50;;;4.88;;
63394;SDS011;49531;-34.520;150.798;2023-12-07T12:30:31;10.55;;;4.70;;
63394;SDS011;49531;-34.520;150.798;2023-12-07T12:32:59;8.07;;;4.22;;
63394;SDS011;49531;-34.520;150.798;2023-12-07T12:35:26;11.18;;;4.32;;
63394;SDS011;49531;-34.520;150.798;2023-12-07T12:37:54;9.07;;;4.63;;
63394;SDS011;49531;-34.520;150.798;2023-12-07T12:40:22;11.65;;;4.43;;
63394;SDS011;49531;-34.520;150.798;2023-12-07T12:42:50;8.38;;;4.22;;
63394;SDS011;49531;-34.520;150.798;2023-12-07T12:45:20;10.23;;;4.80;;
63394;SDS011;49531;-34.520;150.798;2023-12-07T12:47:51;10.80;;;4.90;;
63394;SDS011;49531;-34.520;150.798;2023-12-07T12:50:38;9.70;;;4.70;;
63394;SDS011;49531;-34.520;150.798;2023-12-07T12:53:07;8.95;;;4.70;;
63394;SDS011;49531;-34.520;150.798;2023-12-07T12:55:39;10.43;;;4.32;;
63394;SDS011;49531;-34.520;150.798;2023-12-07T12:58:08;9.70;;;4.50;;
63394;SDS011;49531;-34.520;150.798;2023-12-07T13:00:39;8.88;;;4.43;;
63394;SDS011;49531;-34.520;150.798;2023-12-07T13:03:08;8.70;;;4.10;;
63394;SDS011;49531;-34.520;150.798;2023-12-07T13:05:38;10.77;;;4.40;;
63394;SDS011;49531;-34.520;150.798;2023-12-07T13:08:06;10.13;;;4.57;;
63394;SDS011;49531;-34.520;150.798;2023-12-07T13:10:33;9.23;;;4.55;;
63394;SDS011;49531;-34.520;150.798;2023-12-07T13:13:00;7.95;;;4.10;;
63394;SDS011;49531;-34.520;150.798;2023-12-07T13:15:29;7.78;;;4.20;;
63394;SDS011;49531;-34.520;150.798;2023-12-07T13:17:56;8.90;;;4.40;;
63394;SDS011;49531;-34.520;150.798;2023-12-07T13:20:23;6.55;;;4.18;;
63394;SDS011;49531;-34.520;150.798;2023-12-07T13:22:50;9.15;;;4.53;;
63394;SDS011;49531;-34.520;150.798;2023-12-07T13:25:17;8.13;;;4.40;;
63394;SDS011;49531;-34.520;150.798;2023-12-07T13:27:45;10.45;;;4.95;;
63394;SDS011;49531;-34.520;150.798;2023-12-07T13:30:12;7.47;;;4.03;;
63394;SDS011;49531;-34.520;150.798;2023-12-07T13:32:39;8.55;;;4.47;;
63394;SDS011;49531;-34.520;150.798;2023-12-07T13:35:08;8.73;;;4.50;;
63394;SDS011;49531;-34.520;150.798;2023-12-07T13:37:35;11.25;;;4.47;;
63394;SDS011;49531;-34.520;150.798;2023-12-07T13:40:02;7.78;;;4.15;;
63394;SDS011;49531;-34.520;150.798;2023-12-07T13:42:30;9.38;;;4.35;;
63394;SDS011;49531;-34.520;150.798;2023-12-07T13:44:58;9.32;;;4.10;;
63394;SDS011;49531;-34.520;150.798;2023-12-07T13:47:25;7.53;;;4.05;;
63394;SDS011;49531;-34.520;150.798;2023-12-07T13:50:02;10.02;;;4.22;;
63394;SDS011;49531;-34.520;150.798;2023-12-07T13:52:33;9.30;;;4.10;;
63394;SDS011;49531;-34.520;150.798;2023-12-07T13:55:00;9.77;;;4.40;;
63394;SDS011;49531;-34.520;150.798;2023-12-07T13:57:27;10.57;;;4.43;;
63394;SDS011;49531;-34.520;150.798;2023-12-07T13:59:55;8.85;;;4.35;;
63394;SDS011;49531;-34.520;150.798;2023-12-07T14:02:22;7.57;;;4.10;;
63394;SDS011;49531;-34.520;150.798;2023-12-07T14:04:49;11.57;;;4.50;;
63394;SDS011;49531;-34.520;150.798;2023-12-07T14:07:18;9.73;;;4.07;;
63394;SDS011;49531;-34.520;150.798;2023-12-07T14:09:47;10.25;;;3.88;;
63394;SDS011;49531;-34.520;150.798;2023-12-07T14:12:15;10.50;;;4.10;;
63394;SDS011;49531;-34.520;150.798;2023-12-07T14:14:43;8.57;;;4.00;;
63394;SDS011;49531;-34.520;150.798;2023-12-07T14:17:15;10.32;;;4.30;;
63394;SDS011;49531;-34.520;150.798;2023-12-07T14:19:45;8.98;;;4.03;;